Terminal Aerodrome Forecast
Issued by NWS Wichita, KS

Home | Current Version | Previous Version | Text Only | Print | Product List | Glossary Off
Versions: 1 2 3 4 5 6 7 8 9 10 11 12 13 14 15 16 17 18 19 20

000
FTUS43 KICT 191100
TAFICT
TAF
KICT 191122Z 1912/2012 17006KT 6SM BR SCT010
      TEMPO 1912/1913 5SM BR BKN010
     FM191500 18010KT P6SM SCT020
     FM191800 18014G20KT P6SM FEW035
     FM200100 17009KT P6SM SCT250=

USA.gov is the U.S. government's official web portal to all federal, state and local government web resources and services.